Terminal Aerodrome Forecast
Issued by NWS Cleveland, OH

Home | Current Version | Previous Version | Graphics & Text | Print | Product List | Glossary On
Versions: 1 2 3 4 5 6 7 8 9 10 11 12 13 14 15 16 17 18 19 20 21 22 23 24 25
669
FTUS41 KCLE 212352
TAFMFD
TAF
KMFD 212352Z 2200/2224 18008KT 6SM BR OVC012
      TEMPO 2204/2208 5SM -SHRA BR OVC008
     FM220800 18008KT P6SM OVC015 WS020/20035KT
      TEMPO 2208/2212 3SM -SHRA BR OVC006
     FM221300 18015G25KT P6SM OVC035
     FM222300 18012KT 3SM -RA BR OVC012=

USA.gov is the U.S. government's official web portal to all federal, state and local government web resources and services.